Time;durP1;ratioP1;P1;durP2;ratioP2;P2;SDS_P1;SDS_P2;PMS_P1;PMS_P2;Temp;Humidity;BMP_temperature;BMP_pressure;BME280_temperature;BME280_humidity;BME280_pressure;Samples;Min_cycle;Max_cycle;Signal;HPM_P1;HPM_P2
2022/03/22 00:00:45;;;;;;;9.65;4.30;;;;;;;;;;4995572;28;20054;-69
2022/03/22 00:03:11;;;;;;;9.65;4.15;;;;;;;;;;4990006;28;20029;-68
2022/03/22 00:05:40;;;;;;;10.57;5.72;;;;;;;;;;4987554;28;20025;-70
2022/03/22 00:08:06;;;;;;;7.80;4.50;;;;;;;;;;4995014;28;20427;-70
2022/03/22 00:10:32;;;;;;;10.73;5.20;;;;;;;;;;4994452;28;20101;-69
2022/03/22 00:12:58;;;;;;;12.32;5.90;;;;;;;;;;4990949;28;20104;-69
2022/03/22 00:15:24;;;;;;;8.50;4.88;;;7.70;90.10;;;;;;4987793;28;20030;-68
2022/03/22 00:17:50;;;;;;;6.28;4.13;;;;;;;;;;4995274;28;20060;-69
2022/03/22 00:20:17;;;;;;;9.43;5.43;;;7.60;83.40;;;;;;4992952;28;20033;-70
2022/03/22 00:22:43;;;;;;;15.52;6.35;;;;;;;;;;4990806;28;20451;-69
2022/03/22 00:25:10;;;;;;;9.48;4.88;;;;;;;;;;4987389;28;20061;-67
2022/03/22 00:27:55;;;;;;;15.48;5.60;;;;;;;;;;4994462;28;20550;-67
2022/03/22 00:30:29;;;;;;;9.15;5.15;;;;;;;;;;4993340;28;20050;-69
2022/03/22 00:32:56;;;;;;;8.70;5.18;;;;;;;;;;4990270;28;20029;-69
2022/03/22 00:35:26;;;;;;;5.63;4.65;;;;;;;;;;4989481;28;20494;-70
2022/03/22 00:37:53;;;;;;;16.15;5.32;;;;;;;;;;4995630;28;20486;-69
2022/03/22 00:40:19;;;;;;;8.75;4.70;;;;;;;;;;4995669;28;20034;-69
2022/03/22 00:42:46;;;;;;;8.23;3.88;;;;;;;;;;4989315;28;20026;-69
2022/03/22 00:45:17;;;;;;;18.58;4.80;;;7.40;69.00;;;;;;4985375;28;20038;-69
2022/03/22 00:47:44;;;;;;;6.47;3.95;;;7.40;68.60;;;;;;4994484;28;20422;-69
2022/03/22 00:50:10;;;;;;;5.43;3.90;;;;;;;;;;4994087;28;20568;-69
2022/03/22 00:52:36;;;;;;;20.65;4.85;;;;;;;;;;4990183;28;20995;-69
2022/03/22 00:55:05;;;;;;;18.90;5.05;;;;;;;;;;4987664;28;20037;-70
2022/03/22 00:57:31;;;;;;;12.48;6.00;;;;;;;;;;4994085;28;20069;-69
2022/03/22 01:00:05;;;;;;;10.07;5.20;;;;;;;;;;4993592;28;20908;-69
2022/03/22 01:02:35;;;;;;;5.10;3.83;;;;;;;;;;4988877;28;20045;-68
2022/03/22 01:05:02;;;;;;;8.90;3.42;;;;;;;;;;4985633;28;20054;-70
2022/03/22 01:07:28;;;;;;;15.88;4.82;;;;;;;;;;4995744;28;20045;-69
2022/03/22 01:09:54;;;;;;;10.30;3.92;;;;;;;;;;4994126;28;20046;-69
2022/03/22 01:12:20;;;;;;;12.63;5.57;;;;;;;;;;4988412;28;20030;-69
2022/03/22 01:14:46;;;;;;;9.63;5.17;;;;;;;;;;4984184;28;20049;-70
2022/03/22 01:17:12;;;;;;;13.15;4.97;;;;;;;;;;4996065;28;20030;-69
2022/03/22 01:19:39;;;;;;;12.30;5.35;;;;;;;;;;4992796;28;20046;-70
2022/03/22 01:22:08;;;;;;;8.20;4.35;;;;;;;;;;4994822;28;20029;-70
2022/03/22 01:24:34;;;;;;;12.75;4.45;;;;;;;;;;4991559;28;20046;-70
2022/03/22 01:27:01;;;;;;;11.93;5.15;;;;;;;;;;4994164;28;20030;-70
2022/03/22 01:29:28;;;;;;;11.18;6.55;;;;;;;;;;4994801;28;20048;-70
2022/03/22 01:31:55;;;;;;;10.02;3.95;;;;;;;;;;4992906;28;20041;-70
2022/03/22 01:34:21;;;;;;;5.60;3.72;;;;;;;;;;4984219;28;20046;-69
2022/03/22 01:36:47;;;;;;;7.20;3.47;;;;;;;;;;4993482;28;20026;-69
2022/03/22 01:39:13;;;;;;;9.48;3.40;;;;;;;;;;4994254;28;20069;-70
2022/03/22 01:41:39;;;;;;;7.28;5.32;;;;;;;;;;4992124;28;20018;-69
2022/03/22 01:44:05;;;;;;;9.23;4.68;;;;;;;;;;4981982;28;20096;-70
2022/03/22 01:46:35;;;;;;;7.75;3.55;;;;;;;;;;4994725;28;20032;-69
2022/03/22 01:49:01;;;;;;;5.53;3.65;;;;;;;;;;4999876;28;20042;-69
2022/03/22 01:51:28;;;;;;;10.82;5.40;;;6.10;92.20;;;;;;4996258;28;20049;-69
2022/03/22 01:53:54;;;;;;;11.60;5.00;;;;;;;;;;4988317;28;20046;-70
2022/03/22 01:56:20;;;;;;;8.15;4.28;;;;;;;;;;4994662;28;20033;-66
2022/03/22 01:58:47;;;;;;;7.30;4.20;;;;;;;;;;4986782;28;20038;-69
2022/03/22 02:06:46;;;;;;;6.10;3.17;;;;;;;;;;4996186;28;20048;-67
2022/03/22 02:09:13;;;;;;;9.48;4.47;;;;;;;;;;4998251;28;20045;-70
2022/03/22 02:11:39;;;;;;;10.50;4.57;;;;;;;;;;4996189;28;20038;-69
2022/03/22 02:14:05;;;;;;;6.47;3.53;;;;;;;;;;4985056;28;20414;-69
2022/03/22 02:16:32;;;;;;;11.18;5.50;;;;;;;;;;4994469;28;20076;-67
2022/03/22 02:18:58;;;;;;;10.20;4.43;;;;;;;;;;4997931;28;20026;-68
2022/03/22 02:21:26;;;;;;;13.88;3.70;;;;;;;;;;4996528;28;20042;-66
2022/03/22 02:23:53;;;;;;;10.75;5.38;;;;;;;;;;4990106;28;20057;-68
2022/03/22 02:26:20;;;;;;;9.32;4.40;;;;;;;;;;4991734;28;20057;-68
2022/03/22 02:28:46;;;;;;;7.50;3.83;;;;;;;;;;4997919;28;20065;-67
2022/03/22 02:31:13;;;;;;;11.00;3.38;;;;;;;;;;4999338;28;20029;-68
2022/03/22 02:33:46;;;;;;;6.40;3.33;;;;;;;;;;4990518;28;20034;-67
2022/03/22 02:36:12;;;;;;;10.82;4.80;;;;;;;;;;4991840;28;20076;-67
2022/03/22 02:38:37;;;;;;;12.48;4.70;;;4.50;87.60;;;;;;4978838;28;20062;-67
2022/03/22 02:41:04;;;;;;;7.70;4.20;;;;;;;;;;4996753;28;20066;-67
2022/03/22 02:43:30;;;;;;;6.50;3.15;;;;;;;;;;4990876;28;20018;-68
2022/03/22 02:45:56;;;;;;;6.15;3.90;;;;;;;;;;4989476;28;20026;-68
2022/03/22 02:48:22;;;;;;;9.73;4.57;;;;;;;;;;4994902;28;20061;-68
2022/03/22 02:50:47;;;;;;;5.25;3.33;;;5.10;92.40;;;;;;4983924;28;20565;-68
2022/03/22 02:53:13;;;;;;;5.57;4.45;;;;;;;;;;4992730;28;20047;-67
2022/03/22 02:55:40;;;;;;;11.35;4.45;;;;;;;;;;4990655;28;20087;-67
2022/03/22 02:58:06;;;;;;;10.73;3.67;;;;;;;;;;4997562;28;20026;-67
2022/03/22 03:00:34;;;;;;;5.53;3.45;;;;;;;;;;4995790;28;20045;-67
2022/03/22 03:03:00;;;;;;;6.97;3.35;;;;;;;;;;4990578;28;20026;-67
2022/03/22 03:05:27;;;;;;;6.22;3.88;;;;;;;;;;4990206;28;20117;-68
2022/03/22 03:07:53;;;;;;;7.60;4.63;;;;;;;;;;4995160;28;20026;-67
2022/03/22 03:10:19;;;;;;;10.70;4.20;;;;;;;;;;4997721;28;20034;-67
2022/03/22 03:12:45;;;;;;;12.65;4.55;;;;;;;;;;4991031;28;20030;-67
2022/03/22 03:15:12;;;;;;;6.03;3.85;;;;;;;;;;4987684;28;20036;-67
2022/03/22 03:17:38;;;;;;;6.30;3.78;;;;;;;;;;4994213;28;20514;-67
2022/03/22 03:20:05;;;;;;;7.13;4.03;;;;;;;;;;4997034;28;20037;-67
2022/03/22 03:22:31;;;;;;;6.40;3.70;;;;;;;;;;4991483;28;20112;-67
2022/03/22 03:24:57;;;;;;;12.43;3.83;;;;;;;;;;4989684;28;20029;-68
2022/03/22 03:27:24;;;;;;;;;;;4.70;80.80;;;;;;4994425;28;20096;-66
2022/03/22 03:29:50;;;;;;;8.73;4.07;;;;;;;;;;4977807;28;20628;-68
2022/03/22 03:32:16;;;;;;;8.15;4.53;;;;;;;;;;4990005;28;20034;-70
2022/03/22 03:34:42;;;;;;;7.15;3.60;;;;;;;;;;4986589;28;20038;-68
2022/03/22 03:37:09;;;;;;;13.10;4.03;;;;;;;;;;4996163;28;20029;-68
2022/03/22 03:39:37;;;;;;;8.43;3.80;;;;;;;;;;4995262;28;20526;-70
2022/03/22 03:42:04;;;;;;;8.65;3.42;;;;;;;;;;4992939;28;20084;-69
2022/03/22 03:47:17;;;;;;;9.02;4.70;;;;;;;;;;4994735;28;20868;-69
2022/03/22 03:49:44;;;;;;;7.10;3.30;;;;;;;;;;4994619;28;20046;-70
2022/03/22 03:52:14;;;;;;;6.13;3.63;;;;;;;;;;4995632;28;20136;-67
2022/03/22 03:54:40;;;;;;;4.57;2.38;;;;;;;;;;4985282;28;20034;-67
2022/03/22 03:57:07;;;;;;;8.43;3.25;;;4.20;82.60;;;;;;4994335;28;20026;-68
2022/03/22 03:59:34;;;;;;;6.38;4.07;;;;;;;;;;4994065;28;20076;-70
2022/03/22 04:02:00;;;;;;;9.40;3.83;;;;;;;;;;4995744;28;20050;-70
2022/03/22 04:04:26;;;;;;;5.07;3.33;;;;;;;;;;4984817;28;20056;-70
2022/03/22 04:06:52;;;;;;;12.20;4.45;;;;;;;;;;4996338;28;20030;-69
2022/03/22 04:09:19;;;;;;;11.05;4.97;;;;;;;;;;4993823;28;20048;-69
2022/03/22 04:11:45;;;;;;;11.10;5.47;;;;;;;;;;4994748;28;20487;-68
2022/03/22 04:14:11;;;;;;;11.57;5.35;;;;;;;;;;4983866;28;20021;-69
2022/03/22 04:16:37;;;;;;;8.75;4.43;;;;;;;;;;4977370;28;20560;-67
2022/03/22 04:19:05;;;;;;;7.22;3.53;;;;;;;;;;4992593;28;20567;-69
2022/03/22 04:21:34;;;;;;;8.40;4.07;;;;;;;;;;4996162;28;20113;-69
2022/03/22 04:24:00;;;;;;;10.82;5.28;;;;;;;;;;4986045;28;20061;-70
2022/03/22 04:26:26;;;;;;;7.63;3.58;;;;;;;;;;4991106;28;20026;-69
2022/03/22 04:34:21;;;;;;;6.28;3.60;;;;;;;;;;4986474;28;20541;-67
2022/03/22 04:36:56;;;;;;;7.35;3.95;;;;;;;;;;4994092;28;20764;-67
2022/03/22 04:39:26;;;;;;;7.88;3.88;;;;;;;;;;4994805;28;20038;-68
2022/03/22 04:41:52;;;;;;;9.38;4.28;;;;;;;;;;4981051;28;20018;-66
2022/03/22 04:44:18;;;;;;;4.95;3.42;;;3.40;94.00;;;;;;4983881;28;20044;-67
2022/03/22 04:46:44;;;;;;;8.95;4.38;;;;;;;;;;4992660;28;20026;-68
2022/03/22 04:49:10;;;;;;;9.18;3.95;;;;;;;;;;4995745;28;20042;-68
2022/03/22 04:57:06;;;;;;;8.20;3.75;;;;;;;;;;4993071;28;20097;-66
2022/03/22 04:59:32;;;;;;;11.23;3.45;;;;;;;;;;4994870;28;20034;-68
2022/03/22 05:01:59;;;;;;;9.77;4.25;;;;;;;;;;4994616;28;20080;-67
2022/03/22 05:04:25;;;;;;;6.85;3.40;;;;;;;;;;4983235;28;20064;-67
2022/03/22 05:06:52;;;;;;;15.93;3.25;;;;;;;;;;4993103;28;20031;-69
2022/03/22 05:09:18;;;;;;;12.55;4.53;;;;;;;;;;4994188;28;20038;-67
2022/03/22 05:11:44;;;;;;;8.93;3.40;;;2.90;97.10;;;;;;4993357;28;20034;-67
2022/03/22 05:14:11;;;;;;;11.48;3.78;;;;;;;;;;4984063;28;20093;-68
2022/03/22 05:16:37;;;;;;;5.20;3.30;;;;;;;;;;4990526;28;20449;-66
2022/03/22 05:19:06;;;;;;;16.27;4.78;;;;;;;;;;4996032;28;20042;-68
2022/03/22 05:21:33;;;;;;;5.18;3.08;;;;;;;;;;4996611;28;20850;-69
2022/03/22 05:23:59;;;;;;;7.22;3.63;;;;;;;;;;4989012;28;20064;-70
2022/03/22 05:26:26;;;;;;;11.93;4.47;;;;;;;;;;4993072;28;20504;-66
2022/03/22 05:28:52;;;;;;;8.47;3.30;;;;;;;;;;4999338;28;20039;-67
2022/03/22 05:31:18;;;;;;;8.07;4.55;;;;;;;;;;4998900;28;20033;-67
2022/03/22 05:33:44;;;;;;;16.88;4.35;;;;;;;;;;4991687;28;20022;-70
2022/03/22 05:36:11;;;;;;;3.35;3.05;;;;;;;;;;4990789;28;20034;-68
2022/03/22 05:38:37;;;;;;;6.65;3.10;;;;;;;;;;4997329;28;20033;-67
2022/03/22 05:41:03;;;;;;;17.20;5.20;;;;;;;;;;4981269;28;20037;-67
2022/03/22 05:43:30;;;;;;;8.30;4.35;;;;;;;;;;4992291;28;20535;-67
2022/03/22 05:45:56;;;;;;;4.67;3.13;;;;;;;;;;4991087;28;20554;-67
2022/03/22 05:48:23;;;;;;;6.20;3.22;;;;;;;;;;4996799;28;20501;-68
2022/03/22 05:50:49;;;;;;;7.38;2.88;;;;;;;;;;4997216;28;20030;-66
2022/03/22 05:53:16;;;;;;;9.00;3.75;;;;;;;;;;4987192;28;20069;-69
2022/03/22 05:55:42;;;;;;;11.00;4.82;;;;;;;;;;4986235;28;20026;-68
2022/03/22 05:58:08;;;;;;;9.25;4.93;;;;;;;;;;4996402;28;20031;-68
2022/03/22 06:00:35;;;;;;;7.70;5.10;;;;;;;;;;4993556;28;20026;-68
2022/03/22 06:03:01;;;;;;;18.53;4.90;;;;;;;;;;4988956;28;20039;-69
2022/03/22 06:05:31;;;;;;;8.30;4.95;;;;;;;;;;4985764;28;20603;-67
2022/03/22 06:07:58;;;;;;;10.15;4.82;;;;;;;;;;4995361;28;20022;-68
2022/03/22 06:10:24;;;;;;;24.05;5.45;;;;;;;;;;4997863;28;20036;-67
2022/03/22 06:12:54;;;;;;;10.02;5.40;;;;;;;;;;4990473;28;20026;-69
2022/03/22 06:15:21;;;;;;;10.10;4.03;;;;;;;;;;4985693;28;20554;-69
2022/03/22 06:17:47;;;;;;;;;;;;;;;;;;4991966;28;20033;-70
2022/03/22 06:20:17;;;;;;;10.40;4.85;;;;;;;;;;4991434;28;19917;-67
2022/03/22 06:22:45;;;;;;;11.77;4.65;;;;;;;;;;4989569;28;20065;-69
2022/03/22 06:25:11;;;;;;;7.43;3.53;;;;;;;;;;4986316;28;20026;-67
2022/03/22 06:27:37;;;;;;;6.15;4.10;;;;;;;;;;4992189;28;20026;-67
2022/03/22 06:30:07;;;;;;;11.32;4.15;;;;;;;;;;4973830;28;20124;-73
2022/03/22 06:32:41;;;;;;;11.77;4.65;;;;;;;;;;4995080;28;20038;-69
2022/03/22 06:35:07;;;;;;;9.65;3.47;;;;;;;;;;4993980;28;20445;-68
2022/03/22 06:37:34;;;;;;;6.65;3.90;;;;;;;;;;4995362;28;20031;-69
2022/03/22 06:40:00;;;;;;;4.57;3.60;;;;;;;;;;4994688;28;20033;-69
2022/03/22 06:42:26;;;;;;;7.40;4.43;;;;;;;;;;4994809;28;20065;-67
2022/03/22 06:44:52;;;;;;;11.50;4.35;;;;;;;;;;4991599;28;20474;-69
2022/03/22 06:47:18;;;;;;;8.95;5.32;;;9.30;84.80;;;;;;4994383;28;20038;-68
2022/03/22 06:49:44;;;;;;;7.55;4.65;;;;;;;;;;4994337;28;20046;-69
2022/03/22 06:52:10;;;;;;;8.35;5.30;;;;;;;;;;4994538;28;20042;-69
2022/03/22 06:54:38;;;;;;;12.75;5.93;;;;;;;;;;4992965;28;20081;-70
2022/03/22 06:57:05;;;;;;;12.93;6.30;;;;;;;;;;4981051;28;20030;-70
2022/03/22 06:59:31;;;;;;;8.35;6.05;;;;;;;;;;4996049;28;20506;-69
2022/03/22 07:01:57;;;;;;;13.77;6.43;;;;;;;;;;4995100;28;20030;-69
2022/03/22 07:04:23;;;;;;;12.85;8.70;;;;;;;;;;4999302;28;20050;-69
2022/03/22 07:06:49;;;;;;;19.55;6.20;;;;;;;;;;4995161;28;20084;-70
2022/03/22 07:09:14;;;;;;;9.65;4.95;;;14.20;67.00;;;;;;4994028;28;20050;-69
2022/03/22 07:11:55;;;;;;;13.90;5.15;;;;;;;;;;4997861;28;20030;-69
2022/03/22 07:14:21;;;;;;;11.57;5.97;;;;;;;;;;4977702;28;20442;-69
2022/03/22 07:16:47;;;;;;;18.15;6.13;;;;;;;;;;4994965;28;20030;-69
2022/03/22 07:19:21;;;;;;;10.35;5.43;;;;;;;;;;4996868;28;20035;-69
2022/03/22 07:21:47;;;;;;;7.07;4.57;;;;;;;;;;4993022;28;20046;-69
2022/03/22 07:24:15;;;;;;;10.60;5.55;;;16.10;41.40;;;;;;4993794;28;20422;-69
2022/03/22 07:26:42;;;;;;;12.95;6.30;;;;;;;;;;4995067;28;20038;-70
2022/03/22 07:29:08;;;;;;;;;;;;;;;;;;4995046;28;20582;-69
2022/03/22 07:31:38;;;;;;;25.77;10.87;;;;;;;;;;4995700;28;19906;-68
2022/03/22 07:34:12;;;;;;;10.07;7.55;;;;;;;;;;4993939;28;20072;-69
2022/03/22 07:36:39;;;;;;;11.23;6.78;;;;;;;;;;4992902;28;20030;-70
2022/03/22 07:39:05;;;;;;;;;;;;;;;;;;4979092;28;20037;-68
2022/03/22 07:41:31;;;;;;;14.02;7.32;;;;;;;;;;4994420;28;20425;-70
2022/03/22 07:43:57;;;;;;;11.70;7.43;;;;;;;;;;4994886;28;20080;-69
2022/03/22 07:46:26;;;;;;;12.60;7.88;;;;;;;;;;4998246;28;20092;-69
2022/03/22 07:48:52;;;;;;;18.00;9.15;;;;;;;;;;4996379;28;20081;-69
2022/03/22 07:54:05;;;;;;;13.30;7.65;;;;;;;;;;4995758;28;20131;-69
2022/03/22 07:56:31;;;;;;;12.77;7.78;;;;;;;;;;4994273;28;20037;-69
2022/03/22 07:58:57;;;;;;;14.68;7.93;;;;;;;;;;4992370;28;20037;-69
2022/03/22 08:01:24;;;;;;;;;;;;;;;;;;4997386;28;20034;-69
2022/03/22 08:03:50;;;;;;;15.95;7.88;;;;;;;;;;4993695;28;19909;-69
2022/03/22 08:06:16;;;;;;;18.08;7.70;;;;;;;;;;4992524;28;20579;-70
2022/03/22 08:08:44;;;;;;;13.75;8.20;;;;;;;;;;4992323;28;20157;-69
2022/03/22 08:11:10;;;;;;;13.38;8.65;;;24.10;42.00;;;;;;4994140;28;20030;-69
2022/03/22 08:13:37;;;;;;;12.00;8.63;;;;;;;;;;4995107;28;20399;-69
2022/03/22 08:16:04;;;;;;;11.60;6.32;;;;;;;;;;4994813;28;20085;-69
2022/03/22 08:18:29;;;;;;;9.55;5.45;;;25.80;32.60;;;;;;4992176;28;20025;-69
2022/03/22 08:20:56;;;;;;;6.75;5.10;;;;;;;;;;4995100;28;20505;-73
2022/03/22 08:23:22;;;;;;;6.95;4.20;;;;;;;;;;4996023;28;20021;-70
2022/03/22 08:25:50;;;;;;;10.43;6.25;;;26.90;31.40;;;;;;4996793;28;20038;-70
2022/03/22 08:28:17;;;;;;;9.60;4.85;;;;;;;;;;4996860;28;20038;-71
2022/03/22 08:30:43;;;;;;;8.00;4.10;;;;;;;;;;4993587;28;20052;-71
2022/03/22 08:33:10;;;;;;;7.80;5.13;;;;;;;;;;4995259;28;20050;-71
2022/03/22 08:35:38;;;;;;;13.95;4.93;;;;;;;;;;4991170;28;20559;-70
2022/03/22 08:38:03;;;;;;;25.13;5.00;;;26.40;35.90;;;;;;4994297;28;20043;-70
2022/03/22 08:40:30;;;;;;;6.97;4.43;;;;;;;;;;4994169;28;20038;-71
2022/03/22 08:42:56;;;;;;;12.25;4.15;;;;;;;;;;4992887;28;20181;-71
2022/03/22 08:45:24;;;;;;;9.13;4.35;;;;;;;;;;4992518;28;20049;-71
2022/03/22 08:47:51;;;;;;;8.25;4.22;;;;;;;;;;4992276;28;20528;-71
2022/03/22 08:50:17;;;;;;;;;;;;;;;;;;4994037;28;20042;-72
2022/03/22 08:52:43;;;;;;;;;;;;;;;;;;4992742;28;19925;-72
2022/03/22 08:55:14;;;;;;;6.45;3.83;;;26.20;27.00;;;;;;4993006;28;19994;-72
2022/03/22 08:57:41;;;;;;;10.48;5.47;;;;;;;;;;4992915;28;20027;-71
2022/03/22 09:00:10;;;;;;;6.28;3.78;;;;;;;;;;4991585;28;20037;-72
2022/03/22 09:02:41;;;;;;;7.35;3.47;;;26.90;26.90;;;;;;4992479;28;20027;-71
2022/03/22 09:07:52;;;;;;;9.30;3.78;;;;;;;;;;4995296;28;20535;-70
2022/03/22 09:10:20;;;;;;;6.07;3.45;;;;;;;;;;4997108;28;20045;-70
2022/03/22 09:12:48;;;;;;;6.90;4.43;;;;;;;;;;4993805;28;20109;-71
2022/03/22 09:15:18;;;;;;;7.40;3.67;;;27.40;38.10;;;;;;4993141;28;20063;-71
2022/03/22 09:17:44;;;;;;;6.40;3.42;;;28.50;41.20;;;;;;4992817;28;20076;-71
2022/03/22 09:20:13;;;;;;;6.65;4.28;;;28.00;41.10;;;;;;4994083;28;20467;-71
2022/03/22 09:22:39;;;;;;;6.70;3.30;;;;;;;;;;4993911;28;20043;-71
2022/03/22 09:25:07;;;;;;;5.63;2.95;;;;;;;;;;4994372;28;20471;-71
2022/03/22 09:27:33;;;;;;;5.95;3.22;;;;;;;;;;4991972;28;20018;-71
2022/03/22 09:29:59;;;;;;;5.90;3.40;;;;;;;;;;4991522;28;20529;-71
2022/03/22 09:32:25;;;;;;;8.15;3.72;;;;;;;;;;4992302;28;20027;-70
2022/03/22 09:34:52;;;;;;;6.63;3.40;;;;;;;;;;4993470;28;20030;-70
2022/03/22 09:37:18;;;;;;;;;;;;;;;;;;4994105;28;20268;-70
2022/03/22 09:39:45;;;;;;;6.88;3.33;;;27.50;39.60;;;;;;4992004;28;19917;-70
2022/03/22 09:42:12;;;;;;;9.57;4.47;;;26.70;22.50;;;;;;4990704;28;20153;-70
2022/03/22 09:44:38;;;;;;;10.88;4.57;;;;;;;;;;4992546;28;20453;-71
2022/03/22 09:47:05;;;;;;;7.88;2.97;;;;;;;;;;4992987;28;20055;-71
2022/03/22 09:49:31;;;;;;;6.18;3.75;;;;;;;;;;4990328;28;20038;-70
2022/03/22 09:51:57;;;;;;;6.60;3.25;;;;;;;;;;4991952;28;20049;-70
2022/03/22 09:54:24;;;;;;;8.63;4.30;;;;;;;;;;4992379;28;20030;-70
2022/03/22 09:56:52;;;;;;;8.25;4.20;;;;;;;;;;4991778;28;20030;-71
2022/03/22 09:59:18;;;;;;;9.05;4.25;;;;;;;;;;4993059;28;20507;-70
2022/03/22 10:01:44;;;;;;;5.95;3.53;;;26.00;36.40;;;;;;4993217;28;20116;-70
2022/03/22 10:04:13;;;;;;;5.93;3.20;;;;;;;;;;4991132;28;20035;-70
2022/03/22 10:06:40;;;;;;;8.18;3.40;;;;;;;;;;4993015;28;20064;-70
2022/03/22 10:09:06;;;;;;;4.28;3.05;;;;;;;;;;4995039;28;20048;-71
2022/03/22 10:11:39;;;;;;;5.80;3.45;;;26.50;22.80;;;;;;4995923;28;20055;-70
2022/03/22 10:14:08;;;;;;;7.93;5.40;;;;;;;;;;4996037;28;20034;-71
2022/03/22 10:16:45;;;;;;;6.53;3.88;;;;;;;;;;4996340;28;20057;-70
2022/03/22 10:19:37;;;;;;;7.97;3.75;;;;;;;;;;4995120;28;20508;-71
2022/03/22 10:22:05;;;;;;;6.22;3.60;;;;;;;;;;4993812;28;20043;-70
2022/03/22 10:24:41;;;;;;;9.52;3.70;;;;;;;;;;4993689;28;20499;-69
2022/03/22 10:27:18;;;;;;;5.25;3.83;;;;;;;;;;4994411;28;20483;-70
2022/03/22 10:29:45;;;;;;;6.60;3.80;;;;;;;;;;4995672;28;20061;-70
2022/03/22 10:32:11;;;;;;;4.72;2.97;;;24.80;37.60;;;;;;4997149;28;20529;-71
2022/03/22 10:34:37;;;;;;;9.23;4.75;;;;;;;;;;4994738;28;20061;-70
2022/03/22 10:37:04;;;;;;;8.07;3.90;;;;;;;;;;4996243;28;20033;-69
2022/03/22 10:39:29;;;;;;;7.75;4.03;;;;;;;;;;4993174;28;20042;-70
2022/03/22 10:42:04;;;;;;;7.80;3.72;;;;;;;;;;4993834;28;20490;-70
2022/03/22 10:44:34;;;;;;;5.50;3.45;;;;;;;;;;4995678;28;20031;-70
2022/03/22 10:47:02;;;;;;;5.00;3.47;;;;;;;;;;4996299;28;20054;-70
2022/03/22 10:49:29;;;;;;;10.60;3.72;;;;;;;;;;4995621;28;20026;-70
2022/03/22 10:51:56;;;;;;;13.68;3.25;;;;;;;;;;4993992;28;20061;-70
2022/03/22 10:54:22;;;;;;;6.50;3.88;;;;;;;;;;4994445;28;20042;-70
2022/03/22 10:56:50;;;;;;;5.53;3.78;;;24.60;25.00;;;;;;4977376;28;20029;-71
2022/03/22 10:59:17;;;;;;;8.57;4.22;;;;;;;;;;4996066;28;20042;-72
2022/03/22 11:01:43;;;;;;;;;;;;;;;;;;4995740;28;20125;-70
2022/03/22 11:04:10;;;;;;;5.27;2.70;;;;;;;;;;4993018;28;19992;-71
2022/03/22 11:06:37;;;;;;;5.65;3.55;;;;;;;;;;4992529;28;20755;-70
2022/03/22 11:09:03;;;;;;;4.28;2.92;;;;;;;;;;4995108;28;20037;-71
2022/03/22 11:11:31;;;;;;;7.13;3.70;;;;;;;;;;4996483;28;20037;-71
2022/03/22 11:13:57;;;;;;;7.68;3.67;;;;;;;;;;4996568;28;20565;-69
2022/03/22 11:16:25;;;;;;;7.82;4.20;;;;;;;;;;4997482;28;20547;-70
2022/03/22 11:18:51;;;;;;;9.73;4.60;;;;;;;;;;4992731;28;20038;-70
2022/03/22 11:21:19;;;;;;;8.15;3.90;;;;;;;;;;4976719;28;20176;-71
2022/03/22 11:23:47;;;;;;;7.97;4.63;;;;;;;;;;4992963;28;20027;-71
2022/03/22 11:26:23;;;;;;;6.85;3.22;;;21.90;25.80;;;;;;4994665;28;20034;-70
2022/03/22 11:28:49;;;;;;;8.80;2.78;;;21.70;32.50;;;;;;4994752;28;20161;-70
2022/03/22 11:31:19;;;;;;;5.97;3.30;;;21.40;26.80;;;;;;4996416;28;20124;-70
2022/03/22 11:36:39;;;;;;;10.18;3.78;;;;;;;;;;4991321;28;20124;-71
2022/03/22 11:39:05;;;;;;;6.68;4.30;;;;;;;;;;4993940;28;20046;-71
2022/03/22 11:44:21;;;;;;;5.95;3.58;;;;;;;;;;4995255;28;20088;-72
2022/03/22 11:46:48;;;;;;;6.47;3.33;;;;;;;;;;4994623;28;20026;-72
2022/03/22 11:49:15;;;;;;;6.88;3.17;;;;;;;;;;4994931;28;20034;-71
2022/03/22 11:51:41;;;;;;;;;;;;;;;;;;4991330;28;20064;-70
2022/03/22 11:54:08;;;;;;;7.93;3.25;;;;;;;;;;4993270;28;20378;-71
2022/03/22 11:56:34;;;;;;;7.57;3.38;;;;;;;;;;4982067;28;20025;-68
2022/03/22 11:59:03;;;;;;;8.65;4.72;;;;;;;;;;4996072;28;20040;-69
2022/03/22 12:01:36;;;;;;;6.03;2.95;;;;;;;;;;4995175;28;20030;-68
2022/03/22 12:04:04;;;;;;;6.85;3.60;;;;;;;;;;4989850;28;20032;-68
2022/03/22 12:06:33;;;;;;;5.13;3.35;;;;;;;;;;4989421;28;20022;-68
2022/03/22 12:08:59;;;;;;;8.70;2.85;;;;;;;;;;4991035;28;20037;-67
2022/03/22 12:11:25;;;;;;;4.43;2.55;;;;;;;;;;4993899;28;20032;-69
2022/03/22 12:13:51;;;;;;;8.95;3.88;;;;;;;;;;4994700;28;20454;-68
2022/03/22 12:16:17;;;;;;;5.03;2.70;;;;;;;;;;4994932;28;20671;-68
2022/03/22 12:18:43;;;;;;;4.85;3.10;;;;;;;;;;4990960;28;20042;-68
2022/03/22 12:21:24;;;;;;;5.30;3.05;;;19.80;24.40;;;;;;4991707;28;20026;-68
2022/03/22 12:23:50;;;;;;;7.95;3.25;;;;;;;;;;4992607;28;20034;-69
2022/03/22 12:26:16;;;;;;;3.80;2.65;;;;;;;;;;4994290;28;20346;-67
2022/03/22 12:28:50;;;;;;;6.13;2.85;;;19.60;25.20;;;;;;4975149;28;20022;-67
2022/03/22 12:31:20;;;;;;;5.05;2.92;;;19.00;36.90;;;;;;4993878;28;20504;-68
2022/03/22 12:33:50;;;;;;;7.80;4.88;;;;;;;;;;4990420;28;20038;-68
2022/03/22 12:36:16;;;;;;;8.13;3.38;;;;;;;;;;4990457;28;20030;-68
2022/03/22 12:38:42;;;;;;;5.28;3.00;;;;;;;;;;4993488;28;20118;-68
2022/03/22 12:41:09;;;;;;;11.63;2.33;;;;;;;;;;4994942;28;20505;-69
2022/03/22 12:43:35;;;;;;;4.82;2.75;;;;;;;;;;4993281;28;20034;-68
2022/03/22 12:46:02;;;;;;;4.80;2.20;;;;;;;;;;4993619;28;20030;-68
2022/03/22 12:48:30;;;;;;;5.13;3.15;;;;;;;;;;4992165;28;20223;-68
2022/03/22 12:50:56;;;;;;;5.75;3.65;;;;;;;;;;4989793;28;20045;-69
2022/03/22 12:53:22;;;;;;;6.50;2.95;;;;;;;;;;4991144;28;20034;-67
2022/03/22 12:55:48;;;;;;;6.40;3.47;;;;;;;;;;4993987;28;20049;-72
2022/03/22 12:58:14;;;;;;;5.72;3.20;;;;;;;;;;4994116;28;20513;-68
2022/03/22 13:00:41;;;;;;;5.00;3.67;;;;;;;;;;4992523;28;20034;-74
2022/03/22 13:03:08;;;;;;;9.68;3.70;;;;;;;;;;4992005;28;20022;-73
2022/03/22 13:05:39;;;;;;;7.30;2.45;;;;;;;;;;4995546;28;20038;-74
2022/03/22 13:08:11;;;;;;;5.22;1.95;;;;;;;;;;4976619;28;20038;-73
2022/03/22 13:13:22;;;;;;;3.50;2.67;;;;;;;;;;4995013;28;20554;-74
2022/03/22 13:15:54;;;;;;;4.30;2.97;;;;;;;;;;4992181;28;20061;-74
2022/03/22 13:18:20;;;;;;;5.85;3.20;;;;;;;;;;4994499;28;20144;-74
2022/03/22 13:20:46;;;;;;;6.15;3.67;;;;;;;;;;4992342;28;20042;-74
2022/03/22 13:23:15;;;;;;;4.00;3.63;;;;;;;;;;4993409;28;20622;-74
2022/03/22 13:25:42;;;;;;;4.57;3.03;;;;;;;;;;4993961;28;20042;-73
2022/03/22 13:28:11;;;;;;;6.38;2.60;;;;;;;;;;4995302;28;20022;-73
2022/03/22 13:30:39;;;;;;;8.68;3.00;;;;;;;;;;4991126;28;20099;-73
2022/03/22 13:33:05;;;;;;;;;;;;;;;;;;4991730;28;20034;-73
2022/03/22 13:35:31;;;;;;;6.15;3.05;;;;;;;;;;4992465;28;19925;-72
2022/03/22 13:37:57;;;;;;;5.75;3.15;;;;;;;;;;4993237;28;20110;-70
2022/03/22 13:40:23;;;;;;;15.13;3.58;;;;;;;;;;4976757;28;20602;-70
2022/03/22 13:42:56;;;;;;;5.10;3.00;;;;;;;;;;4995411;28;20109;-71
2022/03/22 13:45:23;;;;;;;5.28;3.35;;;;;;;;;;4995484;28;20032;-70
2022/03/22 13:47:51;;;;;;;6.50;3.10;;;;;;;;;;4995814;28;20091;-71
2022/03/22 13:50:19;;;;;;;4.07;2.83;;;;;;;;;;4998203;28;20044;-71
2022/03/22 13:52:57;;;;;;;9.70;4.22;;;;;;;;;;4996632;28;20091;-71
2022/03/22 13:55:24;;;;;;;7.80;3.92;;;;;;;;;;4995359;28;20526;-69
2022/03/22 13:57:50;;;;;;;8.98;4.43;;;;;;;;;;4994903;28;20064;-69
2022/03/22 14:00:17;;;;;;;7.65;2.85;;;;;;;;;;4993922;28;20513;-70
2022/03/22 14:02:43;;;;;;;6.10;2.97;;;;;;;;;;4994178;28;20038;-69
2022/03/22 14:05:10;;;;;;;5.32;2.70;;;;;;;;;;4996193;28;20034;-69
2022/03/22 14:07:36;;;;;;;5.10;3.30;;;;;;;;;;4996170;28;20029;-69
2022/03/22 14:10:03;;;;;;;7.85;4.15;;;16.50;38.50;;;;;;4997292;28;20254;-70
2022/03/22 14:12:29;;;;;;;3.75;2.45;;;;;;;;;;4995608;28;20026;-69
2022/03/22 14:14:55;;;;;;;4.72;3.13;;;;;;;;;;4995370;28;20042;-69
2022/03/22 14:17:20;;;;;;;6.57;3.78;;;;;;;;;;4994106;28;20035;-69
2022/03/22 14:19:47;;;;;;;11.57;3.92;;;;;;;;;;4991843;28;20130;-70
2022/03/22 14:22:13;;;;;;;8.15;2.92;;;;;;;;;;4995747;28;20030;-69
2022/03/22 14:24:39;;;;;;;7.03;2.72;;;;;;;;;;4994268;28;20372;-68
2022/03/22 14:27:05;;;;;;;17.70;4.55;;;;;;;;;;4987679;28;20080;-70
2022/03/22 14:29:31;;;;;;;10.88;3.78;;;;;;;;;;4995665;28;20034;-69
2022/03/22 14:31:57;;;;;;;7.57;3.67;;;;;;;;;;4996762;28;20100;-69
2022/03/22 14:37:08;;;;;;;6.10;3.70;;;;;;;;;;4995552;28;20266;-69
2022/03/22 14:39:34;;;;;;;7.93;2.88;;;;;;;;;;4997188;28;20044;-68
2022/03/22 14:42:02;;;;;;;6.05;3.10;;;;;;;;;;4994205;28;20475;-69
2022/03/22 14:44:28;;;;;;;6.85;3.17;;;15.70;45.70;;;;;;4996247;28;20034;-68
2022/03/22 14:46:54;;;;;;;11.50;4.18;;;;;;;;;;4996954;28;20419;-69
2022/03/22 14:49:21;;;;;;;4.10;2.30;;;;;;;;;;4994515;28;20044;-69
2022/03/22 14:54:33;;;;;;;5.20;3.30;;;;;;;;;;4992632;28;20041;-69
2022/03/22 14:59:45;;;;;;;7.47;4.47;;;;;;;;;;4994478;28;20095;-69
2022/03/22 15:02:13;;;;;;;6.97;3.33;;;;;;;;;;4996428;28;20557;-69
2022/03/22 15:04:40;;;;;;;5.40;3.40;;;16.00;33.90;;;;;;4994115;28;20458;-68
2022/03/22 15:07:07;;;;;;;4.35;3.28;;;;;;;;;;4993835;28;20570;-70
2022/03/22 15:09:33;;;;;;;5.82;3.25;;;;;;;;;;4990866;28;20092;-69